sensor_id;sensor_type;location;lat;lon;timestamp;P1;P4;P2;P0;N10;N4;N25;N1;N05;TS
71550;SPS30;59367;48.414;9.872;2023-06-10T00:00:56;13.52538776;;13.52538776;;;;;;;
71550;SPS30;59367;48.414;9.872;2023-06-10T00:02:04;14.7110424;;14.7110424;;;;;;;
71550;SPS30;59367;48.414;9.872;2023-06-10T00:03:12;14.8184166;;14.8184166;;;;;;;
71550;SPS30;59367;48.414;9.872;2023-06-10T00:04:20;14.99501801;;14.99501801;;;;;;;
71550;SPS30;59367;48.414;9.872;2023-06-10T00:05:29;15.82708931;;15.82708931;;;;;;;
71550;SPS30;59367;48.414;9.872;2023-06-10T00:06:37;15.00860214;;15.00860214;;;;;;;
71550;SPS30;59367;48.414;9.872;2023-06-10T00:07:45;14.584342;;14.584342;;;;;;;
71550;SPS30;59367;48.414;9.872;2023-06-10T00:08:53;14.95137882;;14.95137882;;;;;;;
71550;SPS30;59367;48.414;9.872;2023-06-10T00:10:00;14.52403641;;14.52403641;;;;;;;
71550;SPS30;59367;48.414;9.872;2023-06-10T00:11:09;14.03096771;;14.03096771;;;;;;;
71550;SPS30;59367;48.414;9.872;2023-06-10T00:12:17;14.55922031;;14.55922031;;;;;;;
71550;SPS30;59367;48.414;9.872;2023-06-10T00:13:25;13.75295067;;13.75295067;;;;;;;
71550;SPS30;59367;48.414;9.872;2023-06-10T00:14:33;13.04491806;;13.04491806;;;;;;;
71550;SPS30;59367;48.414;9.872;2023-06-10T00:15:42;15.48287487;;15.48287487;;;;;;;
71550;SPS30;59367;48.414;9.872;2023-06-10T00:16:50;14.81062317;;14.81062317;;;;;;;
71550;SPS30;59367;48.414;9.872;2023-06-10T00:17:58;13.36455154;;13.36455154;;;;;;;
71550;SPS30;59367;48.414;9.872;2023-06-10T00:19:06;14.1049118;;14.1049118;;;;;;;
71550;SPS30;59367;48.414;9.872;2023-06-10T00:20:15;14.3886776;;14.3886776;;;;;;;
71550;SPS30;59367;48.414;9.872;2023-06-10T00:21:23;15.70586109;;15.70586109;;;;;;;
71550;SPS30;59367;48.414;9.872;2023-06-10T00:22:31;14.29550743;;14.29550743;;;;;;;
71550;SPS30;59367;48.414;9.872;2023-06-10T00:23:39;14.91781044;;14.91781044;;;;;;;
71550;SPS30;59367;48.414;9.872;2023-06-10T00:24:47;14.02032948;;14.02032948;;;;;;;
71550;SPS30;59367;48.414;9.872;2023-06-10T00:25:55;14.90176868;;14.90176868;;;;;;;
71550;SPS30;59367;48.414;9.872;2023-06-10T00:27:03;14.9145298;;14.9145298;;;;;;;
71550;SPS30;59367;48.414;9.872;2023-06-10T00:28:11;14.37373161;;14.37373161;;;;;;;
71550;SPS30;59367;48.414;9.872;2023-06-10T00:29:19;14.29526711;;14.29526711;;;;;;;
71550;SPS30;59367;48.414;9.872;2023-06-10T00:30:27;14.81921387;;14.81921387;;;;;;;
71550;SPS30;59367;48.414;9.872;2023-06-10T00:31:35;14.25905895;;14.25905895;;;;;;;
71550;SPS30;59367;48.414;9.872;2023-06-10T00:32:43;15.29515457;;15.29515457;;;;;;;
71550;SPS30;59367;48.414;9.872;2023-06-10T00:33:51;14.26601791;;14.26601791;;;;;;;
71550;SPS30;59367;48.414;9.872;2023-06-10T00:34:59;14.62718868;;14.62718868;;;;;;;
71550;SPS30;59367;48.414;9.872;2023-06-10T00:36:08;15.0563736;;15.0563736;;;;;;;
71550;SPS30;59367;48.414;9.872;2023-06-10T00:37:16;15.08977795;;15.08977795;;;;;;;
71550;SPS30;59367;48.414;9.872;2023-06-10T00:38:23;14.9066391;;14.9066391;;;;;;;
71550;SPS30;59367;48.414;9.872;2023-06-10T00:39:31;14.80889416;;14.80889416;;;;;;;
71550;SPS30;59367;48.414;9.872;2023-06-10T00:40:42;14.34801006;;14.34801006;;;;;;;
71550;SPS30;59367;48.414;9.872;2023-06-10T00:41:49;15.10355949;;15.10355949;;;;;;;
71550;SPS30;59367;48.414;9.872;2023-06-10T00:42:57;14.18045998;;14.18045998;;;;;;;
71550;SPS30;59367;48.414;9.872;2023-06-10T00:44:05;17.85248375;;17.85248375;;;;;;;
71550;SPS30;59367;48.414;9.872;2023-06-10T00:45:13;15.65176105;;15.65176105;;;;;;;
71550;SPS30;59367;48.414;9.872;2023-06-10T00:46:21;16.79963303;;16.79963303;;;;;;;
71550;SPS30;59367;48.414;9.872;2023-06-10T00:47:30;15.2855072;;15.2855072;;;;;;;
71550;SPS30;59367;48.414;9.872;2023-06-10T00:48:38;14.98860931;;14.98860931;;;;;;;
71550;SPS30;59367;48.414;9.872;2023-06-10T00:49:47;17.38659477;;17.38659477;;;;;;;
71550;SPS30;59367;48.414;9.872;2023-06-10T00:50:55;15.37182045;;15.37182045;;;;;;;
71550;SPS30;59367;48.414;9.872;2023-06-10T00:52:04;15.68822002;;15.68822002;;;;;;;
71550;SPS30;59367;48.414;9.872;2023-06-10T00:53:14;14.21938801;;14.21938801;;;;;;;
71550;SPS30;59367;48.414;9.872;2023-06-10T00:54:22;14.27039337;;14.27039337;;;;;;;
71550;SPS30;59367;48.414;9.872;2023-06-10T00:55:30;14.78111267;;14.78111267;;;;;;;
71550;SPS30;59367;48.414;9.872;2023-06-10T00:56:39;13.67240524;;13.67240524;;;;;;;
71550;SPS30;59367;48.414;9.872;2023-06-10T00:57:47;14.44526386;;14.44526386;;;;;;;
71550;SPS30;59367;48.414;9.872;2023-06-10T00:58:57;15.59610462;;15.59610462;;;;;;;
71550;SPS30;59367;48.414;9.872;2023-06-10T01:00:05;16.85188293;;16.85188293;;;;;;;
71550;SPS30;59367;48.414;9.872;2023-06-10T01:01:14;16.82829285;;16.82829285;;;;;;;
71550;SPS30;59367;48.414;9.872;2023-06-10T01:02:22;17.93296814;;17.93296814;;;;;;;
71550;SPS30;59367;48.414;9.872;2023-06-10T01:03:31;16.4646244;;16.4646244;;;;;;;
71550;SPS30;59367;48.414;9.872;2023-06-10T01:04:40;15.87447929;;15.87447929;;;;;;;
71550;SPS30;59367;48.414;9.872;2023-06-10T01:05:49;16.97421265;;16.97421265;;;;;;;
71550;SPS30;59367;48.414;9.872;2023-06-10T01:07:05;16.79357147;;16.79357147;;;;;;;
71550;SPS30;59367;48.414;9.872;2023-06-10T01:08:19;17.55898857;;17.55898857;;;;;;;
71550;SPS30;59367;48.414;9.872;2023-06-10T01:09:37;16.63760948;;16.63760948;;;;;;;
71550;SPS30;59367;48.414;9.872;2023-06-10T01:10:57;16.80762482;;16.80762482;;;;;;;
71550;SPS30;59367;48.414;9.872;2023-06-10T01:12:10;15.50912476;;15.50912476;;;;;;;
71550;SPS30;59367;48.414;9.872;2023-06-10T01:13:21;15.09035969;;15.09035969;;;;;;;
71550;SPS30;59367;48.414;9.872;2023-06-10T01:14:31;16.02898598;;16.02898598;;;;;;;
71550;SPS30;59367;48.414;9.872;2023-06-10T01:15:42;15.66104984;;15.66104984;;;;;;;
71550;SPS30;59367;48.414;9.872;2023-06-10T01:16:50;15.8323307;;15.8323307;;;;;;;
71550;SPS30;59367;48.414;9.872;2023-06-10T01:18:00;15.70401764;;15.70401764;;;;;;;
71550;SPS30;59367;48.414;9.872;2023-06-10T01:19:09;14.90743923;;14.90743923;;;;;;;
71550;SPS30;59367;48.414;9.872;2023-06-10T01:20:18;15.81900787;;15.81900787;;;;;;;
71550;SPS30;59367;48.414;9.872;2023-06-10T01:21:26;15.7036047;;15.7036047;;;;;;;
71550;SPS30;59367;48.414;9.872;2023-06-10T01:22:34;14.68742847;;14.68742847;;;;;;;
71550;SPS30;59367;48.414;9.872;2023-06-10T01:23:42;14.99875736;;14.99875736;;;;;;;
71550;SPS30;59367;48.414;9.872;2023-06-10T01:24:50;15.74619102;;15.74619102;;;;;;;
71550;SPS30;59367;48.414;9.872;2023-06-10T01:25:59;15.02182961;;15.02182961;;;;;;;
71550;SPS30;59367;48.414;9.872;2023-06-10T01:27:12;14.80857658;;14.80857658;;;;;;;
71550;SPS30;59367;48.414;9.872;2023-06-10T01:28:24;15.53540421;;15.53540421;;;;;;;
71550;SPS30;59367;48.414;9.872;2023-06-10T01:29:36;16.0256691;;16.0256691;;;;;;;
71550;SPS30;59367;48.414;9.872;2023-06-10T01:30:49;17.33872223;;17.33872223;;;;;;;
71550;SPS30;59367;48.414;9.872;2023-06-10T01:32:05;14.69999313;;14.69999313;;;;;;;
71550;SPS30;59367;48.414;9.872;2023-06-10T01:33:18;14.74689388;;14.74689388;;;;;;;
71550;SPS30;59367;48.414;9.872;2023-06-10T01:34:31;15.10286331;;15.10286331;;;;;;;
71550;SPS30;59367;48.414;9.872;2023-06-10T01:35:41;15.08620358;;15.08620358;;;;;;;
71550;SPS30;59367;48.414;9.872;2023-06-10T01:36:51;14.68230438;;14.68230438;;;;;;;
71550;SPS30;59367;48.414;9.872;2023-06-10T01:38:02;14.62921047;;14.62921047;;;;;;;
71550;SPS30;59367;48.414;9.872;2023-06-10T01:39:11;14.9811697;;14.9811697;;;;;;;
71550;SPS30;59367;48.414;9.872;2023-06-10T01:40:20;15.07273483;;15.07273483;;;;;;;
71550;SPS30;59367;48.414;9.872;2023-06-10T01:41:29;14.48473358;;14.48473358;;;;;;;
71550;SPS30;59367;48.414;9.872;2023-06-10T01:42:38;15.50409794;;15.50409794;;;;;;;
71550;SPS30;59367;48.414;9.872;2023-06-10T01:43:46;14.45507431;;14.45507431;;;;;;;
71550;SPS30;59367;48.414;9.872;2023-06-10T01:44:54;16.43531227;;16.43531227;;;;;;;
71550;SPS30;59367;48.414;9.872;2023-06-10T01:46:02;15.22183228;;15.22183228;;;;;;;
71550;SPS30;59367;48.414;9.872;2023-06-10T01:47:10;14.98031521;;14.98031521;;;;;;;
71550;SPS30;59367;48.414;9.872;2023-06-10T01:48:18;15.50899696;;15.50899696;;;;;;;
71550;SPS30;59367;48.414;9.872;2023-06-10T01:49:26;15.34422588;;15.34422588;;;;;;;
71550;SPS30;59367;48.414;9.872;2023-06-10T01:50:34;15.29631519;;15.29631519;;;;;;;
71550;SPS30;59367;48.414;9.872;2023-06-10T01:51:41;15.73317242;;15.73317242;;;;;;;
71550;SPS30;59367;48.414;9.872;2023-06-10T01:52:49;15.18899155;;15.18899155;;;;;;;
71550;SPS30;59367;48.414;9.872;2023-06-10T01:53:57;14.90473175;;14.90473175;;;;;;;
71550;SPS30;59367;48.414;9.872;2023-06-10T01:55:05;15.27706242;;15.27706242;;;;;;;
71550;SPS30;59367;48.414;9.872;2023-06-10T01:56:14;14.68155193;;14.68155193;;;;;;;
71550;SPS30;59367;48.414;9.872;2023-06-10T01:57:21;14.74681091;;14.74681091;;;;;;;
71550;SPS30;59367;48.414;9.872;2023-06-10T01:58:29;15.11274242;;15.11274242;;;;;;;
71550;SPS30;59367;48.414;9.872;2023-06-10T01:59:37;14.00262356;;14.00262356;;;;;;;
71550;SPS30;59367;48.414;9.872;2023-06-10T02:00:45;15.24716377;;15.24716377;;;;;;;
71550;SPS30;59367;48.414;9.872;2023-06-10T02:01:53;15.49378204;;15.49378204;;;;;;;
71550;SPS30;59367;48.414;9.872;2023-06-10T02:03:00;15.46635723;;15.46635723;;;;;;;
71550;SPS30;59367;48.414;9.872;2023-06-10T02:04:08;14.94741631;;14.94741631;;;;;;;
71550;SPS30;59367;48.414;9.872;2023-06-10T02:05:16;14.11328793;;14.11328793;;;;;;;
71550;SPS30;59367;48.414;9.872;2023-06-10T02:06:24;14.78668022;;14.78668022;;;;;;;
71550;SPS30;59367;48.414;9.872;2023-06-10T02:07:32;15.22396278;;15.22396278;;;;;;;
71550;SPS30;59367;48.414;9.872;2023-06-10T02:08:40;14.79517841;;14.79517841;;;;;;;
71550;SPS30;59367;48.414;9.872;2023-06-10T02:09:48;15.37734699;;15.37734699;;;;;;;
71550;SPS30;59367;48.414;9.872;2023-06-10T02:10:56;14.77651119;;14.77651119;;;;;;;
71550;SPS30;59367;48.414;9.872;2023-06-10T02:12:04;14.53360748;;14.53360748;;;;;;;
71550;SPS30;59367;48.414;9.872;2023-06-10T02:13:12;15.95973682;;15.95973682;;;;;;;
71550;SPS30;59367;48.414;9.872;2023-06-10T02:14:20;15.26993465;;15.26993465;;;;;;;
71550;SPS30;59367;48.414;9.872;2023-06-10T02:15:28;14.85995007;;14.85995007;;;;;;;
71550;SPS30;59367;48.414;9.872;2023-06-10T02:16:36;14.96777344;;14.96777344;;;;;;;
71550;SPS30;59367;48.414;9.872;2023-06-10T02:17:44;13.95794678;;13.95794678;;;;;;;
71550;SPS30;59367;48.414;9.872;2023-06-10T02:18:52;14.6960907;;14.6960907;;;;;;;
71550;SPS30;59367;48.414;9.872;2023-06-10T02:20:00;14.61881828;;14.61881828;;;;;;;
71550;SPS30;59367;48.414;9.872;2023-06-10T02:21:09;14.94549847;;14.94549847;;;;;;;
71550;SPS30;59367;48.414;9.872;2023-06-10T02:22:16;15.72732162;;15.72732162;;;;;;;
71550;SPS30;59367;48.414;9.872;2023-06-10T02:23:25;16.54854774;;16.54854774;;;;;;;
71550;SPS30;59367;48.414;9.872;2023-06-10T02:24:33;16.22573853;;16.22573853;;;;;;;
71550;SPS30;59367;48.414;9.872;2023-06-10T02:25:41;16.12719727;;16.12719727;;;;;;;
71550;SPS30;59367;48.414;9.872;2023-06-10T02:26:49;14.95410442;;14.95410442;;;;;;;
71550;SPS30;59367;48.414;9.872;2023-06-10T02:27:56;15.26473808;;15.26473808;;;;;;;
71550;SPS30;59367;48.414;9.872;2023-06-10T02:29:04;15.23541927;;15.23541927;;;;;;;
71550;SPS30;59367;48.414;9.872;2023-06-10T02:30:13;14.4053688;;14.4053688;;;;;;;
71550;SPS30;59367;48.414;9.872;2023-06-10T02:31:21;14.46496677;;14.46496677;;;;;;;
71550;SPS30;59367;48.414;9.872;2023-06-10T02:32:29;15.13574505;;15.13574505;;;;;;;
71550;SPS30;59367;48.414;9.872;2023-06-10T02:33:36;14.60261154;;14.60261154;;;;;;;
71550;SPS30;59367;48.414;9.872;2023-06-10T02:34:44;15.07681847;;15.07681847;;;;;;;
71550;SPS30;59367;48.414;9.872;2023-06-10T02:35:52;13.57804012;;13.57804012;;;;;;;
71550;SPS30;59367;48.414;9.872;2023-06-10T02:37:00;16.64240646;;16.64240646;;;;;;;
71550;SPS30;59367;48.414;9.872;2023-06-10T02:38:08;15.80056477;;15.80056477;;;;;;;
71550;SPS30;59367;48.414;9.872;2023-06-10T02:39:16;13.25201321;;13.25201321;;;;;;;
71550;SPS30;59367;48.414;9.872;2023-06-10T02:40:24;14.78178215;;14.78178215;;;;;;;
71550;SPS30;59367;48.414;9.872;2023-06-10T02:41:32;15.06114101;;15.06114101;;;;;;;
71550;SPS30;59367;48.414;9.872;2023-06-10T02:42:40;14.70375443;;14.70375443;;;;;;;
71550;SPS30;59367;48.414;9.872;2023-06-10T02:43:48;15.06277943;;15.06277943;;;;;;;
71550;SPS30;59367;48.414;9.872;2023-06-10T02:44:56;13.64423561;;13.64423561;;;;;;;
71550;SPS30;59367;48.414;9.872;2023-06-10T02:46:04;13.83759212;;13.83759212;;;;;;;
71550;SPS30;59367;48.414;9.872;2023-06-10T02:47:11;13.92013359;;13.92013359;;;;;;;
71550;SPS30;59367;48.414;9.872;2023-06-10T02:48:19;13.82075882;;13.82075882;;;;;;;
71550;SPS30;59367;48.414;9.872;2023-06-10T02:49:27;14.06774616;;14.06774616;;;;;;;
71550;SPS30;59367;48.414;9.872;2023-06-10T02:50:35;15.50042439;;15.50042439;;;;;;;
71550;SPS30;59367;48.414;9.872;2023-06-10T02:51:43;15.67900562;;15.67900562;;;;;;;
71550;SPS30;59367;48.414;9.872;2023-06-10T02:52:51;13.52354336;;13.52354336;;;;;;;
71550;SPS30;59367;48.414;9.872;2023-06-10T02:53:59;13.53224087;;13.53224087;;;;;;;
71550;SPS30;59367;48.414;9.872;2023-06-10T02:55:08;14.08041477;;14.08041477;;;;;;;
71550;SPS30;59367;48.414;9.872;2023-06-10T02:56:17;14.81344223;;14.81344223;;;;;;;
71550;SPS30;59367;48.414;9.872;2023-06-10T02:57:25;14.81983852;;14.81983852;;;;;;;
71550;SPS30;59367;48.414;9.872;2023-06-10T02:58:32;15.67397594;;15.67397594;;;;;;;
71550;SPS30;59367;48.414;9.872;2023-06-10T02:59:40;14.95511246;;14.95511246;;;;;;;
71550;SPS30;59367;48.414;9.872;2023-06-10T03:00:48;14.56311798;;14.56311798;;;;;;;
71550;SPS30;59367;48.414;9.872;2023-06-10T03:01:56;14.32047081;;14.32047081;;;;;;;
71550;SPS30;59367;48.414;9.872;2023-06-10T03:03:04;13.40210629;;13.40210629;;;;;;;
71550;SPS30;59367;48.414;9.872;2023-06-10T03:04:12;14.90219212;;14.90219212;;;;;;;
71550;SPS30;59367;48.414;9.872;2023-06-10T03:05:20;14.5479126;;14.5479126;;;;;;;
71550;SPS30;59367;48.414;9.872;2023-06-10T03:06:28;14.966506;;14.966506;;;;;;;
71550;SPS30;59367;48.414;9.872;2023-06-10T03:07:36;14.50593472;;14.50593472;;;;;;;
71550;SPS30;59367;48.414;9.872;2023-06-10T03:08:44;14.15297699;;14.15297699;;;;;;;
71550;SPS30;59367;48.414;9.872;2023-06-10T03:09:52;13.05905342;;13.05905342;;;;;;;
71550;SPS30;59367;48.414;9.872;2023-06-10T03:10:59;14.5422821;;14.5422821;;;;;;;
71550;SPS30;59367;48.414;9.872;2023-06-10T03:12:08;15.07372665;;15.07372665;;;;;;;
71550;SPS30;59367;48.414;9.872;2023-06-10T03:13:16;14.65108299;;14.65108299;;;;;;;
71550;SPS30;59367;48.414;9.872;2023-06-10T03:14:24;15.35283566;;15.35283566;;;;;;;
71550;SPS30;59367;48.414;9.872;2023-06-10T03:15:32;14.32326508;;14.32326508;;;;;;;
71550;SPS30;59367;48.414;9.872;2023-06-10T03:16:40;13.97102928;;13.97102928;;;;;;;
71550;SPS30;59367;48.414;9.872;2023-06-10T03:17:48;14.74089622;;14.74089622;;;;;;;
71550;SPS30;59367;48.414;9.872;2023-06-10T03:18:56;15.17763138;;15.17763138;;;;;;;
71550;SPS30;59367;48.414;9.872;2023-06-10T03:20:05;15.11136723;;15.11136723;;;;;;;
71550;SPS30;59367;48.414;9.872;2023-06-10T03:21:13;15.18589306;;15.18589306;;;;;;;
71550;SPS30;59367;48.414;9.872;2023-06-10T03:22:21;15.9338274;;15.9338274;;;;;;;
71550;SPS30;59367;48.414;9.872;2023-06-10T03:23:29;13.32055187;;13.32055187;;;;;;;
71550;SPS30;59367;48.414;9.872;2023-06-10T03:24:37;13.49751759;;13.49751759;;;;;;;
71550;SPS30;59367;48.414;9.872;2023-06-10T03:25:45;13.11000729;;13.11000729;;;;;;;
71550;SPS30;59367;48.414;9.872;2023-06-10T03:26:53;14.79601669;;14.79601669;;;;;;;
71550;SPS30;59367;48.414;9.872;2023-06-10T03:28:01;14.14265537;;14.14265537;;;;;;;
71550;SPS30;59367;48.414;9.872;2023-06-10T03:29:09;13.82432461;;13.82432461;;;;;;;
71550;SPS30;59367;48.414;9.872;2023-06-10T03:30:17;14.53226948;;14.53226948;;;;;;;
71550;SPS30;59367;48.414;9.872;2023-06-10T03:31:25;14.47109222;;14.47109222;;;;;;;
71550;SPS30;59367;48.414;9.872;2023-06-10T03:32:33;14.27819443;;14.27819443;;;;;;;
71550;SPS30;59367;48.414;9.872;2023-06-10T03:33:40;13.94096947;;13.94096947;;;;;;;
71550;SPS30;59367;48.414;9.872;2023-06-10T03:34:48;14.59169769;;14.59169769;;;;;;;
71550;SPS30;59367;48.414;9.872;2023-06-10T03:35:56;12.73940659;;12.73940659;;;;;;;
71550;SPS30;59367;48.414;9.872;2023-06-10T03:37:04;13.37568474;;13.37568474;;;;;;;
71550;SPS30;59367;48.414;9.872;2023-06-10T03:38:12;13.65196419;;13.65196419;;;;;;;
71550;SPS30;59367;48.414;9.872;2023-06-10T03:39:20;13.00683975;;13.00683975;;;;;;;
71550;SPS30;59367;48.414;9.872;2023-06-10T03:40:28;14.3431139;;14.3431139;;;;;;;
71550;SPS30;59367;48.414;9.872;2023-06-10T03:41:36;13.12005138;;13.12005138;;;;;;;
71550;SPS30;59367;48.414;9.872;2023-06-10T03:42:43;13.91370678;;13.91370678;;;;;;;
71550;SPS30;59367;48.414;9.872;2023-06-10T03:43:51;13.51526642;;13.51526642;;;;;;;
71550;SPS30;59367;48.414;9.872;2023-06-10T03:44:59;14.47017097;;14.47017097;;;;;;;
71550;SPS30;59367;48.414;9.872;2023-06-10T03:46:08;14.80006027;;14.80006027;;;;;;;
71550;SPS30;59367;48.414;9.872;2023-06-10T03:47:16;14.24038029;;14.24038029;;;;;;;
71550;SPS30;59367;48.414;9.872;2023-06-10T03:48:24;13.43422604;;13.43422604;;;;;;;
71550;SPS30;59367;48.414;9.872;2023-06-10T03:49:32;13.38013649;;13.38013649;;;;;;;
71550;SPS30;59367;48.414;9.872;2023-06-10T03:50:39;14.1512804;;14.1512804;;;;;;;
71550;SPS30;59367;48.414;9.872;2023-06-10T03:51:47;13.80096436;;13.80096436;;;;;;;
71550;SPS30;59367;48.414;9.872;2023-06-10T03:52:55;14.38772392;;14.38772392;;;;;;;
71550;SPS30;59367;48.414;9.872;2023-06-10T03:54:03;13.98819542;;13.98819542;;;;;;;
71550;SPS30;59367;48.414;9.872;2023-06-10T03:55:11;13.32549477;;13.32549477;;;;;;;
71550;SPS30;59367;48.414;9.872;2023-06-10T03:56:19;13.15621758;;13.15621758;;;;;;;
71550;SPS30;59367;48.414;9.872;2023-06-10T03:57:27;13.09460926;;13.09460926;;;;;;;
71550;SPS30;59367;48.414;9.872;2023-06-10T03:58:35;14.31000328;;14.31000328;;;;;;;
71550;SPS30;59367;48.414;9.872;2023-06-10T03:59:43;13.09580994;;13.09580994;;;;;;;
71550;SPS30;59367;48.414;9.872;2023-06-10T04:00:51;14.20292568;;14.20292568;;;;;;;
71550;SPS30;59367;48.414;9.872;2023-06-10T04:01:59;12.6101141;;12.6101141;;;;;;;
71550;SPS30;59367;48.414;9.872;2023-06-10T04:03:08;13.82331467;;13.82331467;;;;;;;
71550;SPS30;59367;48.414;9.872;2023-06-10T04:04:17;13.33082676;;13.33082676;;;;;;;
71550;SPS30;59367;48.414;9.872;2023-06-10T04:05:25;14.12913895;;14.12913895;;;;;;;
71550;SPS30;59367;48.414;9.872;2023-06-10T04:06:33;13.18112469;;13.18112469;;;;;;;
71550;SPS30;59367;48.414;9.872;2023-06-10T04:07:41;12.46694469;;12.46694469;;;;;;;
71550;SPS30;59367;48.414;9.872;2023-06-10T04:08:49;11.93743706;;11.93743706;;;;;;;
71550;SPS30;59367;48.414;9.872;2023-06-10T04:09:57;11.84406567;;11.84406567;;;;;;;
71550;SPS30;59367;48.414;9.872;2023-06-10T04:11:05;13.28908539;;13.28908539;;;;;;;
71550;SPS30;59367;48.414;9.872;2023-06-10T04:12:13;13.24247932;;13.24247932;;;;;;;
71550;SPS30;59367;48.414;9.872;2023-06-10T04:13:21;12.84986591;;12.84986591;;;;;;;
71550;SPS30;59367;48.414;9.872;2023-06-10T04:14:29;13.91393185;;13.91393185;;;;;;;
71550;SPS30;59367;48.414;9.872;2023-06-10T04:15:36;13.16243362;;13.16243362;;;;;;;
71550;SPS30;59367;48.414;9.872;2023-06-10T04:16:44;13.83570385;;13.83570385;;;;;;;
71550;SPS30;59367;48.414;9.872;2023-06-10T04:17:53;13.80270195;;13.80270195;;;;;;;
71550;SPS30;59367;48.414;9.872;2023-06-10T04:19:01;12.65449619;;12.65449619;;;;;;;
71550;SPS30;59367;48.414;9.872;2023-06-10T04:20:09;13.12797928;;13.12797928;;;;;;;
71550;SPS30;59367;48.414;9.872;2023-06-10T04:21:17;12.68594837;;12.68594837;;;;;;;
71550;SPS30;59367;48.414;9.872;2023-06-10T04:22:25;13.90903759;;13.90903759;;;;;;;
71550;SPS30;59367;48.414;9.872;2023-06-10T04:23:34;13.8370018;;13.8370018;;;;;;;
71550;SPS30;59367;48.414;9.872;2023-06-10T04:24:42;13.92107201;;13.92107201;;;;;;;
71550;SPS30;59367;48.414;9.872;2023-06-10T04:25:50;12.89445782;;12.89445782;;;;;;;
71550;SPS30;59367;48.414;9.872;2023-06-10T04:26:58;12.71807289;;12.71807289;;;;;;;
71550;SPS30;59367;48.414;9.872;2023-06-10T04:28:06;12.69392681;;12.69392681;;;;;;;
71550;SPS30;59367;48.414;9.872;2023-06-10T04:29:14;12.84354496;;12.84354496;;;;;;;
71550;SPS30;59367;48.414;9.872;2023-06-10T04:30:22;13.33132553;;13.33132553;;;;;;;
71550;SPS30;59367;48.414;9.872;2023-06-10T04:31:30;11.97809219;;11.97809219;;;;;;;
71550;SPS30;59367;48.414;9.872;2023-06-10T04:32:38;12.26052284;;12.26052284;;;;;;;
71550;SPS30;59367;48.414;9.872;2023-06-10T04:33:46;12.82194901;;12.82194901;;;;;;;
71550;SPS30;59367;48.414;9.872;2023-06-10T04:34:54;13.68830299;;13.68830299;;;;;;;
71550;SPS30;59367;48.414;9.872;2023-06-10T04:36:03;11.94595432;;11.94595432;;;;;;;
71550;SPS30;59367;48.414;9.872;2023-06-10T04:37:11;13.44024467;;13.44024467;;;;;;;
71550;SPS30;59367;48.414;9.872;2023-06-10T04:38:19;13.45924473;;13.45924473;;;;;;;
71550;SPS30;59367;48.414;9.872;2023-06-10T04:39:27;13.48410034;;13.48410034;;;;;;;
71550;SPS30;59367;48.414;9.872;2023-06-10T04:40:35;12.68269157;;12.68269157;;;;;;;
71550;SPS30;59367;48.414;9.872;2023-06-10T04:41:43;11.67080021;;11.67080021;;;;;;;
71550;SPS30;59367;48.414;9.872;2023-06-10T04:42:50;13.45651627;;13.45651627;;;;;;;
71550;SPS30;59367;48.414;9.872;2023-06-10T04:43:58;12.64274979;;12.64274979;;;;;;;
71550;SPS30;59367;48.414;9.872;2023-06-10T04:45:07;13.12207127;;13.12207127;;;;;;;
71550;SPS30;59367;48.414;9.872;2023-06-10T04:46:15;12.39873791;;12.39873791;;;;;;;
71550;SPS30;59367;48.414;9.872;2023-06-10T04:47:23;12.90873814;;12.90873814;;;;;;;
71550;SPS30;59367;48.414;9.872;2023-06-10T04:48:31;13.33113766;;13.33113766;;;;;;;
71550;SPS30;59367;48.414;9.872;2023-06-10T04:49:39;12.67522049;;12.67522049;;;;;;;
71550;SPS30;59367;48.414;9.872;2023-06-10T04:50:47;13.249753;;13.249753;;;;;;;
71550;SPS30;59367;48.414;9.872;2023-06-10T04:51:55;13.51327038;;13.51327038;;;;;;;
71550;SPS30;59367;48.414;9.872;2023-06-10T04:53:02;12.56695652;;12.56693268;;;;;;;
71550;SPS30;59367;48.414;9.872;2023-06-10T04:54:10;12.62048149;;12.62048149;;;;;;;
71550;SPS30;59367;48.414;9.872;2023-06-10T04:55:18;13.10941696;;13.10941696;;;;;;;
71550;SPS30;59367;48.414;9.872;2023-06-10T04:56:26;14.03204441;;14.03204441;;;;;;;
71550;SPS30;59367;48.414;9.872;2023-06-10T04:57:35;12.95641136;;12.95641136;;;;;;;
71550;SPS30;59367;48.414;9.872;2023-06-10T04:58:43;13.34870911;;13.34870911;;;;;;;
71550;SPS30;59367;48.414;9.872;2023-06-10T04:59:51;12.3835144;;12.3835144;;;;;;;
71550;SPS30;59367;48.414;9.872;2023-06-10T05:00:59;12.91075516;;12.91075516;;;;;;;
71550;SPS30;59367;48.414;9.872;2023-06-10T05:02:07;12.39116764;;12.39116764;;;;;;;
71550;SPS30;59367;48.414;9.872;2023-06-10T05:03:15;12.28488255;;12.28488255;;;;;;;
71550;SPS30;59367;48.414;9.872;2023-06-10T05:04:23;11.4360857;;11.4360857;;;;;;;
71550;SPS30;59367;48.414;9.872;2023-06-10T05:05:31;11.50848007;;11.50848007;;;;;;;
71550;SPS30;59367;48.414;9.872;2023-06-10T05:06:38;12.02853012;;12.02853012;;;;;;;
71550;SPS30;59367;48.414;9.872;2023-06-10T05:07:46;12.77826595;;12.77826595;;;;;;;
71550;SPS30;59367;48.414;9.872;2023-06-10T05:08:54;13.18910217;;13.18910217;;;;;;;
71550;SPS30;59367;48.414;9.872;2023-06-10T05:10:02;11.76436996;;11.76436996;;;;;;;
71550;SPS30;59367;48.414;9.872;2023-06-10T05:11:11;11.17617321;;11.17617321;;;;;;;
71550;SPS30;59367;48.414;9.872;2023-06-10T05:12:19;12.82368088;;12.82368088;;;;;;;
71550;SPS30;59367;48.414;9.872;2023-06-10T05:13:27;12.31117249;;12.31117249;;;;;;;
71550;SPS30;59367;48.414;9.872;2023-06-10T05:14:35;12.20156956;;12.20156956;;;;;;;
71550;SPS30;59367;48.414;9.872;2023-06-10T05:15:43;12.6899538;;12.6899538;;;;;;;
71550;SPS30;59367;48.414;9.872;2023-06-10T05:16:51;11.91723251;;11.91723251;;;;;;;
71550;SPS30;59367;48.414;9.872;2023-06-10T05:17:59;12.44815445;;12.44815445;;;;;;;
71550;SPS30;59367;48.414;9.872;2023-06-10T05:19:07;12.48440838;;12.48440838;;;;;;;
71550;SPS30;59367;48.414;9.872;2023-06-10T05:20:15;10.30551815;;10.30551815;;;;;;;
71550;SPS30;59367;48.414;9.872;2023-06-10T05:21:24;12.4320612;;12.4320612;;;;;;;
71550;SPS30;59367;48.414;9.872;2023-06-10T05:22:31;10.81830788;;10.81830788;;;;;;;
71550;SPS30;59367;48.414;9.872;2023-06-10T05:23:39;10.23692036;;10.23692036;;;;;;;
71550;SPS30;59367;48.414;9.872;2023-06-10T05:24:47;10.51165104;;10.51165104;;;;;;;
71550;SPS30;59367;48.414;9.872;2023-06-10T05:25:55;9.763444901;;9.763444901;;;;;;;
71550;SPS30;59367;48.414;9.872;2023-06-10T05:27:03;9.765454292;;9.765454292;;;;;;;
71550;SPS30;59367;48.414;9.872;2023-06-10T05:28:12;10.82306099;;10.82306099;;;;;;;